sensor_id;sensor_type;location;lat;lon;timestamp;pressure;altitude;pressure_sealevel;temperature;humidity
47742;BME280;33504;52.066;6.096;2022-08-03T00:02:10;101444.39;;;24.98;40.77
47742;BME280;33504;52.066;6.096;2022-08-03T00:04:37;101447.31;;;24.70;40.83
47742;BME280;33504;52.066;6.096;2022-08-03T00:07:04;101446.24;;;24.84;41.00
47742;BME280;33504;52.066;6.096;2022-08-03T00:09:32;101444.81;;;24.76;41.13
47742;BME280;33504;52.066;6.096;2022-08-03T00:11:59;101442.80;;;24.43;41.33
47742;BME280;33504;52.066;6.096;2022-08-03T00:14:26;101444.72;;;24.83;41.33
47742;BME280;33504;52.066;6.096;2022-08-03T00:16:54;101442.69;;;24.54;41.39
47742;BME280;33504;52.066;6.096;2022-08-03T00:19:20;101441.58;;;24.46;41.45
47742;BME280;33504;52.066;6.096;2022-08-03T00:21:48;101441.26;;;24.35;41.56
47742;BME280;33504;52.066;6.096;2022-08-03T00:24:15;101442.03;;;24.26;41.68
47742;BME280;33504;52.066;6.096;2022-08-03T00:26:42;101440.59;;;24.42;41.83
47742;BME280;33504;52.066;6.096;2022-08-03T00:29:10;101441.74;;;24.09;41.81
47742;BME280;33504;52.066;6.096;2022-08-03T00:31:37;101440.90;;;24.28;42.00
47742;BME280;33504;52.066;6.096;2022-08-03T00:34:04;101440.27;;;24.21;42.09
47742;BME280;33504;52.066;6.096;2022-08-03T00:36:31;101441.30;;;24.15;42.10
47742;BME280;33504;52.066;6.096;2022-08-03T00:38:59;101442.95;;;24.09;42.17
47742;BME280;33504;52.066;6.096;2022-08-03T00:41:26;101442.02;;;24.03;42.23
47742;BME280;33504;52.066;6.096;2022-08-03T00:43:53;101443.39;;;23.99;42.32
47742;BME280;33504;52.066;6.096;2022-08-03T00:46:21;101442.23;;;23.91;42.41
47742;BME280;33504;52.066;6.096;2022-08-03T00:48:49;101441.35;;;24.11;42.50
47742;BME280;33504;52.066;6.096;2022-08-03T00:51:17;101439.81;;;23.76;42.58
47742;BME280;33504;52.066;6.096;2022-08-03T00:53:44;101435.74;;;23.72;42.70
47742;BME280;33504;52.066;6.096;2022-08-03T00:56:12;101434.87;;;23.66;42.78
47742;BME280;33504;52.066;6.096;2022-08-03T00:58:39;101435.23;;;23.74;43.38
47742;BME280;33504;52.066;6.096;2022-08-03T01:01:06;101433.65;;;23.69;43.60
47742;BME280;33504;52.066;6.096;2022-08-03T01:03:34;101429.49;;;23.47;43.54
47742;BME280;33504;52.066;6.096;2022-08-03T01:06:06;101428.60;;;23.75;43.44
47742;BME280;33504;52.066;6.096;2022-08-03T01:08:45;101422.68;;;23.72;43.46
47742;BME280;33504;52.066;6.096;2022-08-03T01:11:19;101420.37;;;23.67;43.45
47742;BME280;33504;52.066;6.096;2022-08-03T01:13:55;101417.01;;;23.65;43.47
47742;BME280;33504;52.066;6.096;2022-08-03T01:16:28;101417.00;;;23.16;43.45
47742;BME280;33504;52.066;6.096;2022-08-03T01:19:01;101416.21;;;23.64;43.58
47742;BME280;33504;52.066;6.096;2022-08-03T01:21:36;101416.00;;;23.29;43.71
47742;BME280;33504;52.066;6.096;2022-08-03T01:24:21;101416.88;;;23.52;43.65
47742;BME280;33504;52.066;6.096;2022-08-03T01:27:04;101414.57;;;23.66;43.82
47742;BME280;33504;52.066;6.096;2022-08-03T01:29:50;101412.07;;;23.44;43.90
47742;BME280;33504;52.066;6.096;2022-08-03T01:32:20;101411.80;;;23.18;44.01
47742;BME280;33504;52.066;6.096;2022-08-03T01:34:53;101411.34;;;23.46;44.00
47742;BME280;33504;52.066;6.096;2022-08-03T01:37:25;101411.63;;;23.88;44.07
47742;BME280;33504;52.066;6.096;2022-08-03T01:39:55;101410.60;;;23.46;44.15
47742;BME280;33504;52.066;6.096;2022-08-03T01:42:24;101411.06;;;23.45;44.33
47742;BME280;33504;52.066;6.096;2022-08-03T01:44:52;101407.60;;;23.46;44.33
47742;BME280;33504;52.066;6.096;2022-08-03T01:47:21;101408.34;;;23.48;44.20
47742;BME280;33504;52.066;6.096;2022-08-03T01:49:50;101407.50;;;23.44;44.36
47742;BME280;33504;52.066;6.096;2022-08-03T01:52:20;101412.60;;;23.50;44.28
47742;BME280;33504;52.066;6.096;2022-08-03T01:54:50;101408.75;;;23.76;44.10
47742;BME280;33504;52.066;6.096;2022-08-03T01:57:19;101412.15;;;23.56;44.18
47742;BME280;33504;52.066;6.096;2022-08-03T01:59:49;101406.71;;;23.54;44.11
47742;BME280;33504;52.066;6.096;2022-08-03T02:02:18;101405.51;;;23.52;44.13
47742;BME280;33504;52.066;6.096;2022-08-03T02:04:46;101402.64;;;23.49;44.15
47742;BME280;33504;52.066;6.096;2022-08-03T02:07:15;101401.82;;;23.40;44.17
47742;BME280;33504;52.066;6.096;2022-08-03T02:09:44;101406.70;;;23.62;44.34
47742;BME280;33504;52.066;6.096;2022-08-03T02:12:13;101409.51;;;23.39;44.41
47742;BME280;33504;52.066;6.096;2022-08-03T02:14:43;101407.88;;;23.38;44.43
47742;BME280;33504;52.066;6.096;2022-08-03T02:17:11;101408.61;;;23.38;44.31
47742;BME280;33504;52.066;6.096;2022-08-03T02:19:42;101409.67;;;23.54;44.28
47742;BME280;33504;52.066;6.096;2022-08-03T02:22:11;101404.68;;;23.26;44.22
47742;BME280;33504;52.066;6.096;2022-08-03T02:24:38;101404.87;;;23.20;44.15
47742;BME280;33504;52.066;6.096;2022-08-03T02:27:12;101406.03;;;23.35;44.13
47742;BME280;33504;52.066;6.096;2022-08-03T02:29:45;101403.18;;;23.05;44.22
47742;BME280;33504;52.066;6.096;2022-08-03T02:32:18;101403.22;;;23.42;44.25
47742;BME280;33504;52.066;6.096;2022-08-03T02:34:49;101399.12;;;23.35;44.32
47742;BME280;33504;52.066;6.096;2022-08-03T02:37:18;101394.26;;;23.27;44.48
47742;BME280;33504;52.066;6.096;2022-08-03T02:39:48;101393.96;;;23.25;44.49
47742;BME280;33504;52.066;6.096;2022-08-03T02:42:17;101390.07;;;22.75;44.63
47742;BME280;33504;52.066;6.096;2022-08-03T02:44:49;101388.25;;;22.94;44.67
47742;BME280;33504;52.066;6.096;2022-08-03T02:47:19;101385.67;;;23.08;44.87
47742;BME280;33504;52.066;6.096;2022-08-03T02:49:47;101385.58;;;22.81;44.99
47742;BME280;33504;52.066;6.096;2022-08-03T02:52:15;101381.54;;;22.96;44.99
47742;BME280;33504;52.066;6.096;2022-08-03T02:54:44;101380.77;;;22.91;45.03
47742;BME280;33504;52.066;6.096;2022-08-03T02:57:12;101380.28;;;22.87;45.07
47742;BME280;33504;52.066;6.096;2022-08-03T02:59:41;101381.00;;;22.37;45.14
47742;BME280;33504;52.066;6.096;2022-08-03T03:02:10;101381.68;;;22.56;45.22
47742;BME280;33504;52.066;6.096;2022-08-03T03:04:38;101380.02;;;22.75;45.36
47742;BME280;33504;52.066;6.096;2022-08-03T03:07:05;101381.75;;;22.68;45.41
47742;BME280;33504;52.066;6.096;2022-08-03T03:09:33;101383.45;;;22.42;45.33
47742;BME280;33504;52.066;6.096;2022-08-03T03:12:02;101386.27;;;22.62;45.25
47742;BME280;33504;52.066;6.096;2022-08-03T03:14:30;101384.63;;;22.55;45.36
47742;BME280;33504;52.066;6.096;2022-08-03T03:16:58;101383.34;;;22.30;45.46
47742;BME280;33504;52.066;6.096;2022-08-03T03:19:25;101382.85;;;22.48;45.64
47742;BME280;33504;52.066;6.096;2022-08-03T03:21:53;101379.12;;;22.21;45.70
47742;BME280;33504;52.066;6.096;2022-08-03T03:24:21;101380.17;;;22.41;45.75
47742;BME280;33504;52.066;6.096;2022-08-03T03:26:48;101380.56;;;22.14;45.81
47742;BME280;33504;52.066;6.096;2022-08-03T03:29:16;101379.61;;;22.34;45.75
47742;BME280;33504;52.066;6.096;2022-08-03T03:31:43;101377.05;;;22.30;45.76
47742;BME280;33504;52.066;6.096;2022-08-03T03:34:10;101373.18;;;22.04;45.97
47742;BME280;33504;52.066;6.096;2022-08-03T03:36:38;101372.23;;;22.25;46.03
47742;BME280;33504;52.066;6.096;2022-08-03T03:39:05;101372.03;;;22.26;45.98
47742;BME280;33504;52.066;6.096;2022-08-03T03:41:34;101373.41;;;22.25;46.13
47742;BME280;33504;52.066;6.096;2022-08-03T03:44:01;101374.16;;;22.25;46.24
47742;BME280;33504;52.066;6.096;2022-08-03T03:46:28;101372.90;;;22.25;46.21
47742;BME280;33504;52.066;6.096;2022-08-03T03:48:55;101373.98;;;22.73;46.22
47742;BME280;33504;52.066;6.096;2022-08-03T03:51:23;101373.55;;;22.25;46.24
47742;BME280;33504;52.066;6.096;2022-08-03T03:53:54;101372.72;;;22.25;46.34
47742;BME280;33504;52.066;6.096;2022-08-03T03:56:22;101372.97;;;22.04;46.35
47742;BME280;33504;52.066;6.096;2022-08-03T03:58:49;101373.78;;;22.27;46.42
47742;BME280;33504;52.066;6.096;2022-08-03T04:01:17;101373.49;;;22.26;46.38
47742;BME280;33504;52.066;6.096;2022-08-03T04:03:44;101377.57;;;22.72;46.35
47742;BME280;33504;52.066;6.096;2022-08-03T04:06:12;101375.60;;;22.21;46.24
47742;BME280;33504;52.066;6.096;2022-08-03T04:08:39;101377.89;;;22.21;46.20
47742;BME280;33504;52.066;6.096;2022-08-03T04:11:13;101377.94;;;22.19;46.14
47742;BME280;33504;52.066;6.096;2022-08-03T04:13:46;101379.70;;;22.42;46.31
47742;BME280;33504;52.066;6.096;2022-08-03T04:16:17;101378.40;;;22.13;46.46
47742;BME280;33504;52.066;6.096;2022-08-03T04:18:50;101377.98;;;22.12;46.54
47742;BME280;33504;52.066;6.096;2022-08-03T04:21:19;101381.38;;;22.40;46.47
47742;BME280;33504;52.066;6.096;2022-08-03T04:23:50;101378.96;;;22.13;46.81
47742;BME280;33504;52.066;6.096;2022-08-03T04:26:20;101382.69;;;22.16;46.72
47742;BME280;33504;52.066;6.096;2022-08-03T04:28:48;101380.93;;;22.17;46.78
47742;BME280;33504;52.066;6.096;2022-08-03T04:31:19;101382.28;;;22.46;46.88
47742;BME280;33504;52.066;6.096;2022-08-03T04:33:46;101383.25;;;22.21;46.84
47742;BME280;33504;52.066;6.096;2022-08-03T04:36:16;101385.51;;;22.23;46.81
47742;BME280;33504;52.066;6.096;2022-08-03T04:38:54;101384.91;;;22.25;46.85
47742;BME280;33504;52.066;6.096;2022-08-03T04:41:24;101385.51;;;22.25;46.90
47742;BME280;33504;52.066;6.096;2022-08-03T04:43:53;101383.14;;;22.23;46.76
47742;BME280;33504;52.066;6.096;2022-08-03T04:46:22;101386.31;;;22.27;46.78
47742;BME280;33504;52.066;6.096;2022-08-03T04:48:51;101386.29;;;22.28;46.91
47742;BME280;33504;52.066;6.096;2022-08-03T04:51:19;101387.56;;;22.21;47.54
47742;BME280;33504;52.066;6.096;2022-08-03T04:53:46;101388.18;;;22.28;47.42
47742;BME280;33504;52.066;6.096;2022-08-03T04:56:14;101387.22;;;22.32;47.42
47742;BME280;33504;52.066;6.096;2022-08-03T04:58:41;101391.74;;;22.55;47.67
47742;BME280;33504;52.066;6.096;2022-08-03T05:01:08;101393.25;;;22.31;47.48
47742;BME280;33504;52.066;6.096;2022-08-03T05:03:36;101395.48;;;22.27;47.73
47742;BME280;33504;52.066;6.096;2022-08-03T05:06:03;101395.85;;;22.29;47.78
47742;BME280;33504;52.066;6.096;2022-08-03T05:08:30;101399.07;;;22.30;47.86
47742;BME280;33504;52.066;6.096;2022-08-03T05:10:58;101397.60;;;22.19;48.40
47742;BME280;33504;52.066;6.096;2022-08-03T05:13:24;101401.28;;;22.38;47.86
47742;BME280;33504;52.066;6.096;2022-08-03T05:15:52;101403.07;;;22.46;47.85
47742;BME280;33504;52.066;6.096;2022-08-03T05:18:19;101406.27;;;22.23;47.92
47742;BME280;33504;52.066;6.096;2022-08-03T05:20:47;101409.15;;;22.59;47.71
47742;BME280;33504;52.066;6.096;2022-08-03T05:23:14;101412.24;;;22.55;48.07
47742;BME280;33504;52.066;6.096;2022-08-03T05:25:41;101413.17;;;22.66;48.00
47742;BME280;33504;52.066;6.096;2022-08-03T05:28:08;101413.48;;;22.53;48.35
47742;BME280;33504;52.066;6.096;2022-08-03T05:30:36;101411.79;;;22.67;47.93
47742;BME280;33504;52.066;6.096;2022-08-03T05:33:03;101413.46;;;22.74;47.79
47742;BME280;33504;52.066;6.096;2022-08-03T05:35:31;101412.03;;;22.87;47.56
47742;BME280;33504;52.066;6.096;2022-08-03T05:37:59;101413.97;;;22.90;47.72
47742;BME280;33504;52.066;6.096;2022-08-03T05:40:26;101415.26;;;22.24;48.26
47742;BME280;33504;52.066;6.096;2022-08-03T05:42:53;101414.78;;;22.90;47.88
47742;BME280;33504;52.066;6.096;2022-08-03T05:45:21;101412.08;;;22.75;48.19
47742;BME280;33504;52.066;6.096;2022-08-03T05:47:47;101414.95;;;22.79;47.72
47742;BME280;33504;52.066;6.096;2022-08-03T05:50:16;101417.04;;;22.96;47.44
47742;BME280;33504;52.066;6.096;2022-08-03T05:52:43;101417.21;;;22.90;47.46
47742;BME280;33504;52.066;6.096;2022-08-03T05:55:11;101414.55;;;23.22;47.43
47742;BME280;33504;52.066;6.096;2022-08-03T05:57:39;101415.65;;;22.88;47.02
47742;BME280;33504;52.066;6.096;2022-08-03T06:00:08;101418.05;;;22.97;46.86
47742;BME280;33504;52.066;6.096;2022-08-03T06:02:36;101419.54;;;23.47;46.65
47742;BME280;33504;52.066;6.096;2022-08-03T06:05:04;101419.29;;;23.21;46.34
47742;BME280;33504;52.066;6.096;2022-08-03T06:07:32;101418.88;;;23.33;46.12
47742;BME280;33504;52.066;6.096;2022-08-03T06:09:59;101422.79;;;23.11;45.89
47742;BME280;33504;52.066;6.096;2022-08-03T06:12:26;101421.48;;;23.42;45.90
47742;BME280;33504;52.066;6.096;2022-08-03T06:14:54;101418.34;;;23.19;45.91
47742;BME280;33504;52.066;6.096;2022-08-03T06:17:21;101423.31;;;23.48;45.69
47742;BME280;33504;52.066;6.096;2022-08-03T06:19:51;101425.58;;;23.41;45.63
47742;BME280;33504;52.066;6.096;2022-08-03T06:22:18;101432.05;;;23.63;45.57
47742;BME280;33504;52.066;6.096;2022-08-03T06:24:45;101428.69;;;23.59;45.51
47742;BME280;33504;52.066;6.096;2022-08-03T06:27:12;101427.07;;;23.62;44.87
47742;BME280;33504;52.066;6.096;2022-08-03T06:29:40;101431.43;;;23.85;44.99
47742;BME280;33504;52.066;6.096;2022-08-03T06:32:07;101430.38;;;23.52;44.51
47742;BME280;33504;52.066;6.096;2022-08-03T06:34:34;101428.15;;;23.69;44.47
47742;BME280;33504;52.066;6.096;2022-08-03T06:37:02;101431.74;;;23.91;44.24
47742;BME280;33504;52.066;6.096;2022-08-03T06:39:29;101433.09;;;24.09;44.19
47742;BME280;33504;52.066;6.096;2022-08-03T06:41:57;101429.88;;;23.85;44.14
47742;BME280;33504;52.066;6.096;2022-08-03T06:44:24;101433.70;;;24.22;43.90
47742;BME280;33504;52.066;6.096;2022-08-03T06:46:51;101434.43;;;24.25;43.75
47742;BME280;33504;52.066;6.096;2022-08-03T06:49:18;101439.48;;;24.11;43.39
47742;BME280;33504;52.066;6.096;2022-08-03T06:51:45;101435.06;;;24.64;42.94
47742;BME280;33504;52.066;6.096;2022-08-03T06:54:12;101434.28;;;23.84;43.44
47742;BME280;33504;52.066;6.096;2022-08-03T06:56:40;101435.89;;;24.35;43.10
47742;BME280;33504;52.066;6.096;2022-08-03T06:59:07;101430.48;;;24.60;42.96
47742;BME280;33504;52.066;6.096;2022-08-03T07:01:34;101433.67;;;24.33;43.14
47742;BME280;33504;52.066;6.096;2022-08-03T07:04:02;101433.94;;;24.67;43.11
47742;BME280;33504;52.066;6.096;2022-08-03T07:06:29;101432.63;;;24.86;42.50
47742;BME280;33504;52.066;6.096;2022-08-03T07:08:57;101431.67;;;24.88;42.25
47742;BME280;33504;52.066;6.096;2022-08-03T07:11:24;101434.77;;;24.67;41.82
47742;BME280;33504;52.066;6.096;2022-08-03T07:13:51;101430.16;;;25.21;41.12
47742;BME280;33504;52.066;6.096;2022-08-03T07:16:19;101433.36;;;25.11;41.46
47742;BME280;33504;52.066;6.096;2022-08-03T07:18:46;101434.66;;;24.91;41.28
47742;BME280;33504;52.066;6.096;2022-08-03T07:21:13;101431.00;;;25.19;41.05
47742;BME280;33504;52.066;6.096;2022-08-03T07:23:41;101434.00;;;25.47;40.87
47742;BME280;33504;52.066;6.096;2022-08-03T07:26:08;101435.23;;;25.59;40.90
47742;BME280;33504;52.066;6.096;2022-08-03T07:28:35;101440.90;;;25.57;40.41
47742;BME280;33504;52.066;6.096;2022-08-03T07:31:03;101443.00;;;25.63;39.97
47742;BME280;33504;52.066;6.096;2022-08-03T07:33:30;101446.09;;;25.62;39.73
47742;BME280;33504;52.066;6.096;2022-08-03T07:35:57;101441.00;;;26.07;39.49
47742;BME280;33504;52.066;6.096;2022-08-03T07:38:25;101443.04;;;26.35;39.01
47742;BME280;33504;52.066;6.096;2022-08-03T07:40:53;101442.37;;;26.03;38.63
47742;BME280;33504;52.066;6.096;2022-08-03T07:43:20;101441.92;;;26.24;38.88
47742;BME280;33504;52.066;6.096;2022-08-03T07:45:47;101439.88;;;26.33;38.53
47742;BME280;33504;52.066;6.096;2022-08-03T07:48:14;101439.99;;;25.94;38.39
47742;BME280;33504;52.066;6.096;2022-08-03T07:50:42;101441.80;;;26.17;38.13
47742;BME280;33504;52.066;6.096;2022-08-03T07:53:09;101440.11;;;26.20;38.18
47742;BME280;33504;52.066;6.096;2022-08-03T07:55:36;101445.67;;;26.74;37.64
47742;BME280;33504;52.066;6.096;2022-08-03T07:58:05;101446.03;;;26.71;37.67
47742;BME280;33504;52.066;6.096;2022-08-03T08:00:33;101445.79;;;26.73;37.96
47742;BME280;33504;52.066;6.096;2022-08-03T08:03:01;101446.48;;;27.44;37.29
47742;BME280;33504;52.066;6.096;2022-08-03T08:05:28;101448.82;;;27.25;36.79
47742;BME280;33504;52.066;6.096;2022-08-03T08:07:55;101453.08;;;27.38;36.95
47742;BME280;33504;52.066;6.096;2022-08-03T08:10:22;101453.09;;;27.63;36.17
47742;BME280;33504;52.066;6.096;2022-08-03T08:12:50;101451.62;;;27.84;35.88
47742;BME280;33504;52.066;6.096;2022-08-03T08:15:17;101451.94;;;27.69;35.53
47742;BME280;33504;52.066;6.096;2022-08-03T08:17:46;101451.86;;;27.32;35.93
47742;BME280;33504;52.066;6.096;2022-08-03T08:20:16;101449.54;;;27.70;35.06
47742;BME280;33504;52.066;6.096;2022-08-03T08:22:43;101448.87;;;27.85;35.06
47742;BME280;33504;52.066;6.096;2022-08-03T08:25:11;101447.41;;;27.84;34.95
47742;BME280;33504;52.066;6.096;2022-08-03T08:27:42;101452.37;;;27.90;34.87
47742;BME280;33504;52.066;6.096;2022-08-03T08:30:12;101451.92;;;28.22;34.52
47742;BME280;33504;52.066;6.096;2022-08-03T08:32:41;101457.14;;;28.08;34.33
47742;BME280;33504;52.066;6.096;2022-08-03T08:35:10;101450.98;;;28.48;33.21
47742;BME280;33504;52.066;6.096;2022-08-03T08:37:38;101449.22;;;28.34;33.75
47742;BME280;33504;52.066;6.096;2022-08-03T08:40:07;101449.58;;;28.59;33.07
47742;BME280;33504;52.066;6.096;2022-08-03T08:42:36;101448.94;;;28.79;32.98
47742;BME280;33504;52.066;6.096;2022-08-03T08:45:04;101451.61;;;29.15;32.32
47742;BME280;33504;52.066;6.096;2022-08-03T08:47:35;101445.18;;;29.07;32.44
47742;BME280;33504;52.066;6.096;2022-08-03T08:50:04;101448.54;;;29.19;32.44
47742;BME280;33504;52.066;6.096;2022-08-03T08:52:33;101446.42;;;29.69;31.90
47742;BME280;33504;52.066;6.096;2022-08-03T08:55:04;101441.65;;;30.00;31.86
47742;BME280;33504;52.066;6.096;2022-08-03T08:57:38;101444.98;;;30.40;31.07
47742;BME280;33504;52.066;6.096;2022-08-03T09:00:10;101445.16;;;29.59;31.38
47742;BME280;33504;52.066;6.096;2022-08-03T09:02:37;101453.95;;;30.01;30.93
47742;BME280;33504;52.066;6.096;2022-08-03T09:05:05;101449.04;;;30.14;30.59
47742;BME280;33504;52.066;6.096;2022-08-03T09:07:32;101450.18;;;30.36;30.51
47742;BME280;33504;52.066;6.096;2022-08-03T09:09:59;101451.61;;;30.08;30.11
47742;BME280;33504;52.066;6.096;2022-08-03T09:12:26;101455.15;;;30.75;29.79
47742;BME280;33504;52.066;6.096;2022-08-03T09:14:54;101448.68;;;30.50;29.66
47742;BME280;33504;52.066;6.096;2022-08-03T09:17:21;101452.16;;;30.83;29.53
47742;BME280;33504;52.066;6.096;2022-08-03T09:20:04;101452.63;;;30.70;28.99
47742;BME280;33504;52.066;6.096;2022-08-03T09:22:32;101447.91;;;30.62;29.07
47742;BME280;33504;52.066;6.096;2022-08-03T09:25:01;101445.65;;;31.31;29.19
47742;BME280;33504;52.066;6.096;2022-08-03T09:27:28;101443.35;;;31.47;29.13
47742;BME280;33504;52.066;6.096;2022-08-03T09:29:57;101445.57;;;31.86;27.91
47742;BME280;33504;52.066;6.096;2022-08-03T09:32:24;101445.91;;;31.15;28.49
47742;BME280;33504;52.066;6.096;2022-08-03T09:34:52;101447.68;;;31.49;27.72
47742;BME280;33504;52.066;6.096;2022-08-03T09:37:19;101443.84;;;31.21;28.18
47742;BME280;33504;52.066;6.096;2022-08-03T09:39:47;101444.45;;;31.38;27.68
47742;BME280;33504;52.066;6.096;2022-08-03T09:42:15;101447.46;;;31.93;27.30
47742;BME280;33504;52.066;6.096;2022-08-03T09:44:44;101443.94;;;32.02;27.53
47742;BME280;33504;52.066;6.096;2022-08-03T09:47:13;101446.55;;;31.69;27.39
47742;BME280;33504;52.066;6.096;2022-08-03T09:49:41;101444.01;;;32.07;27.22
47742;BME280;33504;52.066;6.096;2022-08-03T09:52:14;101441.92;;;32.26;27.31
47742;BME280;33504;52.066;6.096;2022-08-03T09:54:42;101444.79;;;32.51;26.68
47742;BME280;33504;52.066;6.096;2022-08-03T09:57:20;101444.38;;;32.58;26.38
47742;BME280;33504;52.066;6.096;2022-08-03T09:59:47;101451.04;;;32.74;26.36
47742;BME280;33504;52.066;6.096;2022-08-03T10:02:25;101444.26;;;32.66;26.13
47742;BME280;33504;52.066;6.096;2022-08-03T10:04:53;101448.10;;;33.34;26.11
47742;BME280;33504;52.066;6.096;2022-08-03T10:07:21;101448.42;;;33.44;25.12
47742;BME280;33504;52.066;6.096;2022-08-03T10:09:54;101445.08;;;33.11;24.74
47742;BME280;33504;52.066;6.096;2022-08-03T10:12:21;101449.04;;;33.70;24.76
47742;BME280;33504;52.066;6.096;2022-08-03T10:14:48;101449.13;;;33.82;24.91
47742;BME280;33504;52.066;6.096;2022-08-03T10:17:16;101443.04;;;33.72;24.93
47742;BME280;33504;52.066;6.096;2022-08-03T10:19:43;101449.30;;;33.64;24.99
47742;BME280;33504;52.066;6.096;2022-08-03T10:22:12;101449.46;;;33.79;24.94
47742;BME280;33504;52.066;6.096;2022-08-03T10:24:48;101438.67;;;33.64;24.53
47742;BME280;33504;52.066;6.096;2022-08-03T10:27:18;101440.29;;;33.40;25.07
47742;BME280;33504;52.066;6.096;2022-08-03T10:29:50;101435.05;;;33.99;24.98
47742;BME280;33504;52.066;6.096;2022-08-03T10:32:22;101437.59;;;33.83;24.14
47742;BME280;33504;52.066;6.096;2022-08-03T10:34:56;101426.18;;;33.87;24.17
47742;BME280;33504;52.066;6.096;2022-08-03T10:37:25;101435.26;;;33.99;24.15
47742;BME280;33504;52.066;6.096;2022-08-03T10:39:57;101424.55;;;34.13;23.84
47742;BME280;33504;52.066;6.096;2022-08-03T10:42:27;101428.77;;;34.18;23.48
47742;BME280;33504;52.066;6.096;2022-08-03T10:45:01;101426.93;;;34.54;22.77
47742;BME280;33504;52.066;6.096;2022-08-03T10:47:30;101422.25;;;34.26;23.34
47742;BME280;33504;52.066;6.096;2022-08-03T10:49:58;101428.78;;;33.49;24.45
47742;BME280;33504;52.066;6.096;2022-08-03T10:52:26;101417.90;;;34.39;24.04
47742;BME280;33504;52.066;6.096;2022-08-03T10:54:53;101422.29;;;34.63;23.46
47742;BME280;33504;52.066;6.096;2022-08-03T10:57:43;101407.95;;;34.96;22.55
47742;BME280;33504;52.066;6.096;2022-08-03T11:00:12;101408.74;;;35.02;22.53
47742;BME280;33504;52.066;6.096;2022-08-03T11:03:13;101404.86;;;35.97;23.12
47742;BME280;33504;52.066;6.096;2022-08-03T11:05:42;101402.09;;;35.73;22.46
47742;BME280;33504;52.066;6.096;2022-08-03T11:08:26;101393.52;;;36.04;21.89
47742;BME280;33504;52.066;6.096;2022-08-03T11:10:55;101392.45;;;35.33;21.38
47742;BME280;33504;52.066;6.096;2022-08-03T11:13:24;101396.36;;;35.24;21.60
47742;BME280;33504;52.066;6.096;2022-08-03T11:15:54;101388.34;;;34.96;21.50
47742;BME280;33504;52.066;6.096;2022-08-03T11:18:22;101385.58;;;34.92;21.46
47742;BME280;33504;52.066;6.096;2022-08-03T11:20:51;101384.74;;;35.38;21.44
47742;BME280;33504;52.066;6.096;2022-08-03T11:23:38;101387.98;;;35.73;21.65
47742;BME280;33504;52.066;6.096;2022-08-03T11:26:13;101383.79;;;35.87;21.72
47742;BME280;33504;52.066;6.096;2022-08-03T11:28:43;101381.92;;;36.44;20.94
47742;BME280;33504;52.066;6.096;2022-08-03T11:31:44;101379.81;;;37.03;20.96
47742;BME280;33504;52.066;6.096;2022-08-03T11:34:14;101378.98;;;35.88;20.69
47742;BME280;33504;52.066;6.096;2022-08-03T11:37:20;101382.27;;;36.75;20.73
47742;BME280;33504;52.066;6.096;2022-08-03T11:39:50;101385.69;;;36.40;20.67
47742;BME280;33504;52.066;6.096;2022-08-03T11:42:49;101389.37;;;37.53;19.76
47742;BME280;33504;52.066;6.096;2022-08-03T11:45:17;101389.54;;;37.04;20.23
47742;BME280;33504;52.066;6.096;2022-08-03T11:47:44;101387.64;;;36.81;18.61
47742;BME280;33504;52.066;6.096;2022-08-03T11:50:11;101390.92;;;36.97;18.67
47742;BME280;33504;52.066;6.096;2022-08-03T11:52:40;101395.27;;;36.93;18.99
47742;BME280;33504;52.066;6.096;2022-08-03T11:55:12;101387.12;;;36.52;19.04
47742;BME280;33504;52.066;6.096;2022-08-03T11:57:40;101393.35;;;36.58;19.70
47742;BME280;33504;52.066;6.096;2022-08-03T12:00:26;101393.43;;;37.05;19.80
47742;BME280;33504;52.066;6.096;2022-08-03T12:02:56;101396.37;;;37.14;18.86
47742;BME280;33504;52.066;6.096;2022-08-03T12:05:43;101395.87;;;37.57;18.85
47742;BME280;33504;52.066;6.096;2022-08-03T12:08:12;101397.44;;;37.44;18.45
47742;BME280;33504;52.066;6.096;2022-08-03T12:10:45;101391.61;;;37.20;18.71
47742;BME280;33504;52.066;6.096;2022-08-03T12:13:13;101395.59;;;37.36;18.57
47742;BME280;33504;52.066;6.096;2022-08-03T12:15:40;101392.59;;;37.37;18.58
47742;BME280;33504;52.066;6.096;2022-08-03T12:18:14;101389.39;;;37.30;18.49
47742;BME280;33504;52.066;6.096;2022-08-03T12:20:47;101388.27;;;37.61;18.53
47742;BME280;33504;52.066;6.096;2022-08-03T12:23:26;101391.62;;;37.09;18.49
47742;BME280;33504;52.066;6.096;2022-08-03T12:26:01;101386.00;;;37.50;18.38
47742;BME280;33504;52.066;6.096;2022-08-03T12:28:27;101387.83;;;37.43;18.84
47742;BME280;33504;52.066;6.096;2022-08-03T12:30:55;101395.07;;;37.65;17.63
47742;BME280;33504;52.066;6.096;2022-08-03T12:33:27;101391.80;;;37.70;17.41
47742;BME280;33504;52.066;6.096;2022-08-03T12:36:04;101383.17;;;37.80;17.86
47742;BME280;33504;52.066;6.096;2022-08-03T12:38:33;101386.17;;;37.85;17.90
47742;BME280;33504;52.066;6.096;2022-08-03T12:41:04;101384.32;;;38.58;17.68
47742;BME280;33504;52.066;6.096;2022-08-03T12:43:32;101381.51;;;38.47;17.53
47742;BME280;33504;52.066;6.096;2022-08-03T12:46:16;101383.02;;;38.64;17.51
47742;BME280;33504;52.066;6.096;2022-08-03T12:49:15;101385.10;;;39.38;17.77
47742;BME280;33504;52.066;6.096;2022-08-03T12:51:56;101384.60;;;38.35;17.63
47742;BME280;33504;52.066;6.096;2022-08-03T12:54:26;101391.22;;;38.41;18.00
47742;BME280;33504;52.066;6.096;2022-08-03T12:56:57;101381.61;;;38.46;17.38
47742;BME280;33504;52.066;6.096;2022-08-03T12:59:25;101391.76;;;38.48;17.66
47742;BME280;33504;52.066;6.096;2022-08-03T13:01:52;101391.55;;;38.84;17.25
47742;BME280;33504;52.066;6.096;2022-08-03T13:04:28;101389.78;;;38.60;17.18